Time;durP1;ratioP1;P1;durP2;ratioP2;P2;SDS_P1;SDS_P2;PMS_P1;PMS_P2;Temp;Humidity;BMP_temperature;BMP_pressure;BME280_temperature;BME280_humidity;BME280_pressure;Samples;Min_cycle;Max_cycle;Signal;HPM_P1;HPM_P2
2022/10/01 00:00:21;;;;;;;9.15;4.45;;;9.80;99.90;;;;;;5055239;28;20094;-75
2022/10/01 00:02:46;;;;;;;8.40;3.80;;;9.80;99.90;;;;;;5056113;28;20074;-75
2022/10/01 00:05:12;;;;;;;9.98;4.15;;;10.10;99.90;;;;;;5055274;28;20506;-75
2022/10/01 00:07:43;;;;;;;7.90;3.50;;;10.40;99.90;;;;;;5056031;28;20115;-75
2022/10/01 00:10:10;;;;;;;5.80;3.92;;;10.70;99.90;;;;;;5055276;28;20029;-75
2022/10/01 00:12:36;;;;;;;7.05;4.03;;;10.80;99.90;;;;;;5055233;28;20066;-75
2022/10/01 00:15:03;;;;;;;7.90;3.95;;;10.90;99.90;;;;;;5055919;28;20115;-75
2022/10/01 00:17:29;;;;;;;7.15;3.92;;;11.00;99.90;;;;;;5055277;28;20052;-75
2022/10/01 00:19:54;;;;;;;9.98;3.80;;;11.10;99.90;;;;;;5055351;28;20353;-75
2022/10/01 00:22:20;;;;;;;6.25;3.97;;;11.10;99.90;;;;;;5073252;28;20024;-75
2022/10/01 00:24:46;;;;;;;7.20;4.57;;;11.20;99.90;;;;;;5055018;28;20594;-75
2022/10/01 00:27:12;;;;;;;6.30;3.60;;;11.20;99.90;;;;;;5057717;28;20021;-73
2022/10/01 00:29:39;;;;;;;8.02;4.07;;;11.30;99.90;;;;;;5076835;28;20029;-72
2022/10/01 00:32:05;;;;;;;7.03;4.20;;;11.20;99.90;;;;;;5076719;28;20044;-72
2022/10/01 00:34:30;;;;;;;8.48;4.00;;;11.20;99.90;;;;;;5058939;28;20510;-73
2022/10/01 00:36:56;;;;;;;8.07;3.60;;;11.20;99.90;;;;;;5059280;28;20083;-72
2022/10/01 00:39:22;;;;;;;6.47;4.57;;;11.10;99.90;;;;;;5058873;28;20020;-72
2022/10/01 00:41:48;;;;;;;7.72;3.90;;;11.10;99.90;;;;;;5077275;28;20044;-72
2022/10/01 00:44:34;;;;;;;8.63;4.15;;;10.90;99.90;;;;;;5058737;28;20017;-72
2022/10/01 00:47:10;;;;;;;8.38;4.22;;;10.80;99.90;;;;;;5076677;28;20056;-72
2022/10/01 00:49:37;;;;;;;5.85;3.90;;;10.80;99.90;;;;;;5076744;28;20035;-72
2022/10/01 00:52:07;;;;;;;7.97;3.47;;;10.80;99.90;;;;;;5076502;28;20035;-73
2022/10/01 00:54:55;;;;;;;7.57;3.83;;;11.00;99.90;;;;;;5076562;28;20042;-73
2022/10/01 00:57:24;;;;;;;7.18;3.80;;;11.10;99.90;;;;;;5058691;28;20064;-73
2022/10/01 00:59:53;;;;;;;5.93;3.03;;;11.10;99.90;;;;;;5058928;28;20051;-73
2022/10/01 01:02:19;;;;;;;11.57;4.30;;;11.20;99.90;;;;;;5058870;28;20037;-73
2022/10/01 01:04:44;;;;;;;6.03;3.67;;;11.10;99.90;;;;;;5058319;28;20046;-72
2022/10/01 01:07:10;;;;;;;10.25;3.95;;;11.10;99.90;;;;;;5058274;28;20021;-72
2022/10/01 01:09:41;;;;;;;7.13;3.60;;;11.20;99.90;;;;;;5076290;28;20491;-71
2022/10/01 01:12:32;;;;;;;5.18;3.45;;;11.30;99.90;;;;;;5059050;28;20021;-72
2022/10/01 01:15:13;;;;;;;6.87;3.73;;;11.20;99.90;;;;;;5059036;28;20051;-72
2022/10/01 01:17:55;;;;;;;6.15;3.60;;;11.20;99.90;;;;;;5058960;28;20021;-72
2022/10/01 01:20:38;;;;;;;14.95;4.30;;;11.20;99.90;;;;;;5076035;28;20547;-72
2022/10/01 01:23:11;;;;;;;10.40;4.18;;;11.30;99.90;;;;;;5059122;28;20016;-73
2022/10/01 01:25:46;;;;;;;6.65;3.83;;;11.20;99.90;;;;;;5041479;28;20021;-74
2022/10/01 01:28:18;;;;;;;5.15;3.60;;;11.10;99.90;;;;;;5075850;28;20031;-74
2022/10/01 01:30:44;;;;;;;;;;;11.10;99.90;;;;;;5076520;28;20066;-74
2022/10/01 01:33:16;;;;;;;6.22;3.95;;;11.10;99.90;;;;;;5057796;28;19944;-74
2022/10/01 01:36:04;;;;;;;7.45;3.92;;;11.20;99.90;;;;;;5058598;28;20058;-75
2022/10/01 01:38:37;;;;;;;6.47;3.58;;;11.20;99.90;;;;;;5056928;28;20475;-75
2022/10/01 01:41:05;;;;;;;7.25;3.50;;;11.10;99.90;;;;;;5057691;28;20031;-74
2022/10/01 01:43:36;;;;;;;14.48;4.00;;;11.00;99.90;;;;;;5075536;28;20025;-74
2022/10/01 01:46:04;;;;;;;6.00;4.15;;;11.10;99.90;;;;;;5057668;28;20017;-74
2022/10/01 01:48:31;;;;;;;5.47;3.88;;;11.00;99.90;;;;;;5058080;28;20031;-74
2022/10/01 01:51:19;;;;;;;4.78;3.47;;;11.00;99.90;;;;;;5075439;28;20020;-74
2022/10/01 01:53:45;;;;;;;5.85;3.45;;;10.90;99.90;;;;;;5057660;28;20024;-74
2022/10/01 01:56:10;;;;;;;6.78;3.85;;;11.00;99.90;;;;;;5057444;28;20029;-74
2022/10/01 01:58:37;;;;;;;7.35;3.45;;;11.00;99.90;;;;;;5058187;28;20120;-74
2022/10/01 02:01:03;;;;;;;7.53;4.03;;;11.00;99.90;;;;;;5057169;28;20029;-74
2022/10/01 02:03:31;;;;;;;10.95;3.92;;;11.00;99.90;;;;;;5058129;28;20021;-74
2022/10/01 02:06:33;;;;;;;8.57;3.70;;;11.00;99.90;;;;;;5075445;28;20032;-74
2022/10/01 02:09:14;;;;;;;9.45;3.97;;;11.00;99.90;;;;;;5056881;28;20025;-75
2022/10/01 02:11:52;;;;;;;5.50;3.05;;;11.10;99.90;;;;;;5075308;28;20020;-75
2022/10/01 02:14:27;;;;;;;6.70;3.45;;;10.90;99.90;;;;;;5057952;28;20032;-75
2022/10/01 02:16:56;;;;;;;4.43;2.85;;;10.80;99.90;;;;;;5057111;28;20036;-76
2022/10/01 02:19:43;;;;;;;8.15;3.22;;;10.90;99.90;;;;;;5057314;28;20383;-74
2022/10/01 02:22:21;;;;;;;4.78;3.05;;;10.80;99.90;;;;;;5074834;28;20104;-74
2022/10/01 02:24:55;;;;;;;6.80;3.30;;;10.90;99.90;;;;;;5056882;28;20039;-74
2022/10/01 02:27:24;;;;;;;5.65;3.47;;;10.80;99.90;;;;;;5056814;28;20017;-74
2022/10/01 02:29:51;;;;;;;10.45;3.97;;;10.80;99.90;;;;;;5056753;28;20029;-75
2022/10/01 02:32:18;;;;;;;6.45;3.70;;;10.90;99.90;;;;;;5074840;28;20021;-74
2022/10/01 02:34:47;;;;;;;7.53;3.42;;;10.90;99.90;;;;;;5057268;28;20024;-74
2022/10/01 02:37:13;;;;;;;6.25;3.25;;;11.00;99.90;;;;;;5076154;28;20127;-72
2022/10/01 02:39:40;;;;;;;7.35;3.20;;;11.10;99.90;;;;;;5057330;28;20028;-71
2022/10/01 02:42:10;;;;;;;4.32;2.55;;;11.00;99.90;;;;;;5074979;28;20025;-71
2022/10/01 02:44:41;;;;;;;4.78;2.70;;;11.10;99.90;;;;;;5056583;28;20017;-71
2022/10/01 02:47:18;;;;;;;5.82;2.85;;;11.20;99.90;;;;;;5056473;28;20020;-72
2022/10/01 02:49:44;;;;;;;5.03;2.58;;;11.10;99.90;;;;;;5074163;28;20074;-72
2022/10/01 02:52:22;;;;;;;5.25;3.20;;;11.20;99.90;;;;;;5056208;28;20514;-75
2022/10/01 02:54:53;;;;;;;5.72;2.55;;;11.00;99.90;;;;;;5074869;28;20114;-75
2022/10/01 02:57:22;;;;;;;5.93;2.90;;;11.10;99.90;;;;;;5056791;28;20078;-75
2022/10/01 02:59:49;;;;;;;6.53;2.70;;;11.10;99.90;;;;;;5056492;28;20028;-73
2022/10/01 03:02:14;;;;;;;4.38;2.72;;;11.10;99.90;;;;;;5056152;28;20056;-74
2022/10/01 03:04:40;;;;;;;7.50;2.80;;;11.00;99.90;;;;;;5074044;28;20415;-74
2022/10/01 03:07:05;;;;;;;3.03;2.22;;;11.00;99.90;;;;;;5073947;28;20475;-74
2022/10/01 03:09:33;;;;;;;3.83;2.65;;;11.10;99.90;;;;;;5056912;28;20078;-74
2022/10/01 03:11:59;;;;;;;3.78;2.53;;;11.20;99.90;;;;;;5055922;28;20029;-74
2022/10/01 03:14:25;;;;;;;5.82;2.95;;;11.10;99.90;;;;;;5056783;28;20082;-74
2022/10/01 03:16:51;;;;;;;4.70;2.53;;;11.10;99.90;;;;;;5055850;28;20017;-74
2022/10/01 03:19:17;;;;;;;4.88;2.60;;;11.20;99.90;;;;;;5056346;28;20116;-74
2022/10/01 03:21:43;;;;;;;9.93;2.88;;;11.30;99.90;;;;;;5055723;28;20067;-74
2022/10/01 03:24:09;;;;;;;3.88;2.33;;;11.30;99.90;;;;;;5073664;28;20027;-74
2022/10/01 03:26:35;;;;;;;5.95;2.97;;;11.20;99.90;;;;;;5073950;28;20059;-74
2022/10/01 03:29:01;;;;;;;5.53;3.45;;;11.20;99.90;;;;;;5056042;28;20073;-74
2022/10/01 03:31:26;;;;;;;5.30;3.50;;;11.10;99.90;;;;;;5056027;28;20028;-74
2022/10/01 03:33:52;;;;;;;5.38;3.33;;;11.10;99.90;;;;;;5073769;28;20024;-74
2022/10/01 03:36:17;;;;;;;5.00;3.55;;;11.00;99.90;;;;;;5055598;28;20033;-74
2022/10/01 03:38:43;;;;;;;4.85;3.22;;;11.00;99.90;;;;;;5055466;28;20025;-74
2022/10/01 03:41:09;;;;;;;5.88;3.85;;;10.90;99.90;;;;;;5073655;28;20027;-75
2022/10/01 03:43:34;;;;;;;8.23;3.58;;;10.90;99.90;;;;;;5055526;28;20016;-74
2022/10/01 03:46:00;;;;;;;10.13;3.15;;;10.70;99.90;;;;;;5073369;28;20095;-75
2022/10/01 03:48:26;;;;;;;5.95;3.20;;;10.70;99.90;;;;;;5073660;28;20020;-75
2022/10/01 03:50:58;;;;;;;7.75;3.45;;;10.80;99.90;;;;;;5055814;28;20056;-75
2022/10/01 03:53:26;;;;;;;11.05;3.60;;;10.90;99.90;;;;;;5055514;28;20115;-72
2022/10/01 03:55:52;;;;;;;7.32;2.80;;;10.90;99.90;;;;;;5055516;28;20039;-73
2022/10/01 03:58:18;;;;;;;4.40;2.97;;;10.90;99.90;;;;;;5073536;28;20036;-72
2022/10/01 04:00:46;;;;;;;6.20;3.28;;;10.80;99.90;;;;;;5055207;28;20043;-72
2022/10/01 04:03:12;;;;;;;9.80;3.58;;;10.80;99.90;;;;;;5055275;28;20074;-72
2022/10/01 04:05:38;;;;;;;6.20;3.47;;;10.80;99.90;;;;;;5055252;28;20032;-72
2022/10/01 04:08:03;;;;;;;6.97;3.80;;;10.80;99.90;;;;;;5073307;28;20077;-73
2022/10/01 04:10:29;;;;;;;6.03;3.50;;;10.80;99.90;;;;;;5055455;28;20021;-73
2022/10/01 04:12:55;;;;;;;8.50;3.80;;;10.80;99.90;;;;;;5055115;28;20074;-72
2022/10/01 04:15:22;;;;;;;5.40;3.88;;;10.70;99.90;;;;;;5055088;28;20064;-72
2022/10/01 04:17:48;;;;;;;5.70;3.80;;;10.70;99.90;;;;;;5055901;28;20119;-72
2022/10/01 04:20:13;;;;;;;7.55;3.40;;;10.80;99.90;;;;;;5055039;28;20104;-72
2022/10/01 04:22:40;;;;;;;5.60;4.00;;;10.90;99.90;;;;;;5073324;28;20123;-72
2022/10/01 04:25:09;;;;;;;8.43;3.90;;;10.80;99.90;;;;;;5055761;28;20032;-73
2022/10/01 04:27:55;;;;;;;7.97;3.88;;;10.80;99.90;;;;;;5055346;28;20021;-72
2022/10/01 04:30:21;;;;;;;11.05;4.78;;;10.70;99.90;;;;;;5072443;28;20063;-74
2022/10/01 04:32:46;;;;;;;7.63;4.95;;;10.40;99.90;;;;;;5055083;28;20021;-74
2022/10/01 04:35:12;;;;;;;10.48;4.85;;;10.40;99.90;;;;;;5072857;28;20039;-74
2022/10/01 04:37:38;;;;;;;8.30;4.55;;;10.20;99.90;;;;;;5072811;28;20068;-74
2022/10/01 04:40:04;;;;;;;10.00;4.85;;;10.20;99.90;;;;;;5055939;28;20051;-74
2022/10/01 04:42:30;;;;;;;11.48;5.10;;;10.30;99.90;;;;;;5073047;28;20029;-75
2022/10/01 04:44:56;;;;;;;10.13;5.70;;;10.20;99.90;;;;;;5054834;28;20020;-75
2022/10/01 04:47:22;;;;;;;8.82;5.13;;;10.10;99.90;;;;;;5072743;28;20017;-74
2022/10/01 04:49:47;;;;;;;10.80;4.63;;;10.00;99.90;;;;;;5055114;28;20081;-75
2022/10/01 04:52:13;;;;;;;9.27;5.25;;;10.10;99.90;;;;;;5054731;28;20040;-74
2022/10/01 04:54:39;;;;;;;10.52;5.45;;;10.10;99.90;;;;;;5055579;28;20416;-74
2022/10/01 04:57:04;;;;;;;7.57;4.88;;;10.10;99.90;;;;;;5055190;28;20021;-74
2022/10/01 04:59:30;;;;;;;11.82;5.78;;;10.10;99.90;;;;;;5072976;28;20020;-74
2022/10/01 05:01:56;;;;;;;9.25;5.30;;;9.90;99.90;;;;;;5054632;28;20487;-74
2022/10/01 05:04:22;;;;;;;13.20;5.55;;;9.90;99.90;;;;;;5054760;28;20027;-75
2022/10/01 05:06:47;;;;;;;15.15;5.63;;;10.00;99.90;;;;;;5072892;28;20107;-75
2022/10/01 05:09:13;;;;;;;13.45;6.85;;;9.90;99.90;;;;;;5055030;28;20021;-74
2022/10/01 05:11:38;;;;;;;15.32;6.68;;;9.90;99.90;;;;;;5054537;28;20032;-74
2022/10/01 05:14:04;;;;;;;10.00;6.30;;;10.00;99.90;;;;;;5056814;28;20162;-74
2022/10/01 05:16:29;;;;;;;10.32;6.65;;;9.90;99.90;;;;;;5059044;28;20025;-74
2022/10/01 05:18:55;;;;;;;17.08;7.32;;;9.90;99.90;;;;;;5075929;28;20025;-74
2022/10/01 05:21:21;;;;;;;18.75;8.30;;;9.70;99.90;;;;;;5058109;28;20013;-74
2022/10/01 05:23:46;;;;;;;18.63;8.90;;;9.70;99.90;;;;;;5058303;28;20031;-74
2022/10/01 05:26:12;;;;;;;17.40;10.20;;;9.60;99.90;;;;;;5058293;28;20023;-73
2022/10/01 05:28:43;;;;;;;19.55;9.20;;;9.60;99.90;;;;;;5058497;28;20205;-74
2022/10/01 05:31:09;;;;;;;17.70;8.77;;;9.60;99.90;;;;;;5075858;28;20051;-75
2022/10/01 05:33:34;;;;;;;15.07;8.77;;;9.70;99.90;;;;;;5058392;28;20028;-74
2022/10/01 05:36:00;;;;;;;15.35;9.40;;;9.60;99.90;;;;;;5058563;28;20024;-73
2022/10/01 05:38:25;;;;;;;19.17;10.40;;;9.40;99.90;;;;;;5057625;28;20021;-73
2022/10/01 05:40:51;;;;;;;24.90;11.07;;;9.50;99.90;;;;;;5057671;28;20020;-74
2022/10/01 05:43:17;;;;;;;19.75;10.40;;;9.40;99.90;;;;;;5057935;28;20017;-73
2022/10/01 05:45:43;;;;;;;14.88;8.75;;;9.50;99.90;;;;;;5057610;28;20073;-73
2022/10/01 05:48:09;;;;;;;22.60;10.93;;;9.60;99.90;;;;;;5058424;28;20032;-73
2022/10/01 05:50:41;;;;;;;24.80;10.95;;;9.60;99.90;;;;;;5075414;28;20025;-73
2022/10/01 05:53:08;;;;;;;15.27;9.00;;;9.70;99.90;;;;;;5058459;28;20376;-73
2022/10/01 05:55:34;;;;;;;13.00;8.48;;;9.80;99.90;;;;;;5057452;28;20036;-73
2022/10/01 05:58:02;;;;;;;20.15;10.38;;;9.80;99.90;;;;;;5075251;28;20020;-73
2022/10/01 06:00:29;;;;;;;25.98;12.43;;;9.80;99.90;;;;;;5057401;28;20048;-73
2022/10/01 06:02:59;;;;;;;25.58;11.95;;;10.00;99.90;;;;;;5057705;28;20051;-74
2022/10/01 06:05:25;;;;;;;16.05;9.63;;;10.00;99.90;;;;;;5057278;28;20027;-73
2022/10/01 06:07:52;;;;;;;17.85;9.30;;;10.00;99.90;;;;;;5057140;28;20420;-74
2022/10/01 06:10:18;;;;;;;29.27;12.55;;;10.00;99.90;;;;;;5075209;28;20028;-75
2022/10/01 06:12:44;;;;;;;14.95;9.15;;;10.00;99.90;;;;;;5074985;28;20029;-75
2022/10/01 06:15:10;;;;;;;16.80;9.60;;;10.10;99.90;;;;;;5057069;28;20120;-74
2022/10/01 06:17:42;;;;;;;21.60;10.90;;;10.10;99.90;;;;;;5075176;28;20384;-74
2022/10/01 06:20:08;;;;;;;;;;;10.00;99.90;;;;;;5075672;28;20017;-74
2022/10/01 06:22:34;;;;;;;13.20;8.02;;;9.90;99.90;;;;;;5073638;28;19905;-74
2022/10/01 06:24:59;;;;;;;17.33;8.48;;;9.90;99.90;;;;;;5056758;28;20017;-73
2022/10/01 06:27:25;;;;;;;19.15;8.60;;;9.80;99.90;;;;;;5057149;28;20047;-73
2022/10/01 06:29:50;;;;;;;13.43;8.27;;;9.80;99.90;;;;;;5056834;28;20112;-73
2022/10/01 06:32:18;;;;;;;17.27;8.82;;;9.80;99.90;;;;;;5057083;28;20016;-74
2022/10/01 06:34:44;;;;;;;23.17;11.05;;;9.70;99.90;;;;;;5057818;28;20013;-74
2022/10/01 06:37:09;;;;;;;14.07;8.25;;;9.70;99.90;;;;;;5056636;28;20520;-74
2022/10/01 06:39:35;;;;;;;13.85;7.28;;;9.70;99.90;;;;;;5074514;28;20050;-74
2022/10/01 06:42:00;;;;;;;13.30;7.90;;;9.70;99.90;;;;;;5056966;28;20025;-74
2022/10/01 06:44:26;;;;;;;11.90;6.70;;;9.80;99.90;;;;;;5071001;28;20032;-74
2022/10/01 06:46:53;;;;;;;9.45;5.68;;;9.90;99.90;;;;;;5057971;28;20025;-74
2022/10/01 06:49:20;;;;;;;12.32;6.85;;;9.80;99.90;;;;;;5074561;28;20021;-74
2022/10/01 06:54:30;;;;;;;10.65;6.55;;;9.80;99.90;;;;;;5074826;28;20098;-74
2022/10/01 06:56:56;;;;;;;8.65;6.00;;;9.80;99.90;;;;;;5056222;28;20069;-74
2022/10/01 06:59:21;;;;;;;11.85;6.60;;;9.80;99.90;;;;;;5056690;28;20032;-74
2022/10/01 07:01:52;;;;;;;14.90;8.40;;;9.70;99.90;;;;;;5056376;28;20040;-74
2022/10/01 07:04:19;;;;;;;12.35;5.60;;;9.70;99.90;;;;;;5074001;28;20043;-74
2022/10/01 07:06:45;;;;;;;10.30;5.60;;;9.80;99.90;;;;;;5074239;28;20017;-74
2022/10/01 07:09:10;;;;;;;8.45;5.15;;;9.90;99.90;;;;;;5057191;28;20036;-74
2022/10/01 07:11:40;;;;;;;8.18;5.18;;;9.90;99.90;;;;;;5073725;28;20502;-74
2022/10/01 07:14:06;;;;;;;7.70;5.30;;;10.00;99.90;;;;;;5057085;28;20082;-74
2022/10/01 07:16:32;;;;;;;8.77;6.28;;;10.00;99.90;;;;;;5074041;28;20064;-74
2022/10/01 07:18:58;;;;;;;9.63;5.63;;;10.00;99.90;;;;;;5056839;28;20060;-74
2022/10/01 07:21:23;;;;;;;9.05;4.93;;;10.10;99.90;;;;;;5055805;28;20028;-74
2022/10/01 07:23:49;;;;;;;11.10;5.22;;;10.00;99.90;;;;;;5055801;28;20415;-74
2022/10/01 07:26:14;;;;;;;8.32;5.57;;;10.10;99.90;;;;;;5055999;28;20113;-74
2022/10/01 07:28:40;;;;;;;7.28;4.35;;;10.10;99.90;;;;;;5073528;28;20021;-74
2022/10/01 07:31:10;;;;;;;5.65;4.22;;;10.10;99.90;;;;;;5073422;28;20021;-74
2022/10/01 07:33:36;;;;;;;10.55;5.65;;;10.10;99.90;;;;;;5055666;28;20025;-74
2022/10/01 07:36:04;;;;;;;11.63;6.45;;;10.20;99.90;;;;;;5054858;28;20031;-74
2022/10/01 07:38:32;;;;;;;8.48;5.38;;;10.10;99.90;;;;;;5073361;28;20411;-74
2022/10/01 07:40:57;;;;;;;8.50;5.18;;;10.20;99.90;;;;;;5056209;28;20388;-74
2022/10/01 07:43:23;;;;;;;5.88;4.90;;;10.20;99.90;;;;;;5056563;28;20016;-75
2022/10/01 07:45:51;;;;;;;8.27;5.00;;;10.20;99.90;;;;;;5073405;28;20024;-75
2022/10/01 07:48:18;;;;;;;7.97;4.43;;;10.20;99.90;;;;;;5055421;28;20038;-76
2022/10/01 07:50:44;;;;;;;6.13;4.10;;;10.20;99.90;;;;;;5073262;28;20078;-75
2022/10/01 07:53:10;;;;;;;7.63;4.72;;;10.20;99.90;;;;;;5055339;28;20115;-75
2022/10/01 07:55:36;;;;;;;6.40;4.30;;;10.20;99.90;;;;;;5073289;28;20028;-75
2022/10/01 07:58:02;;;;;;;6.03;3.95;;;10.20;99.90;;;;;;5055198;28;20029;-75
2022/10/01 08:00:31;;;;;;;9.93;4.65;;;10.30;99.90;;;;;;5074089;28;20021;-75
2022/10/01 08:02:57;;;;;;;8.65;5.05;;;10.30;99.90;;;;;;5055072;28;20035;-74
2022/10/01 08:05:26;;;;;;;8.85;5.55;;;10.20;99.90;;;;;;5055189;28;20016;-74
2022/10/01 08:07:52;;;;;;;9.18;5.72;;;10.20;99.90;;;;;;5055541;28;20025;-74
2022/10/01 08:10:19;;;;;;;5.40;3.78;;;10.40;99.90;;;;;;5055168;28;20049;-74
2022/10/01 08:12:45;;;;;;;6.53;4.13;;;10.40;99.90;;;;;;5055404;28;20068;-75
2022/10/01 08:15:16;;;;;;;5.30;3.38;;;10.40;99.90;;;;;;5073506;28;20106;-75
2022/10/01 08:17:42;;;;;;;6.07;3.58;;;10.40;99.90;;;;;;5055154;28;20024;-73
2022/10/01 08:20:10;;;;;;;5.15;3.70;;;10.50;99.90;;;;;;5055685;28;20039;-73
2022/10/01 08:22:35;;;;;;;13.30;4.47;;;10.50;99.90;;;;;;5055007;28;20017;-72
2022/10/01 08:25:01;;;;;;;4.03;2.72;;;10.50;99.90;;;;;;5072964;28;20028;-72
2022/10/01 08:27:27;;;;;;;4.40;2.67;;;10.60;99.90;;;;;;5072955;28;20025;-72
2022/10/01 08:29:53;;;;;;;8.85;3.38;;;10.70;99.90;;;;;;5055417;28;20111;-72
2022/10/01 08:32:20;;;;;;;5.70;3.63;;;10.70;99.90;;;;;;5054953;28;20024;-72
2022/10/01 08:34:46;;;;;;;4.90;3.20;;;10.70;99.90;;;;;;5072826;28;20020;-72
2022/10/01 08:37:13;;;;;;;3.85;2.78;;;10.70;99.90;;;;;;5055256;28;20030;-72
2022/10/01 08:39:38;;;;;;;5.10;3.55;;;10.70;99.90;;;;;;5054842;28;20032;-73
2022/10/01 08:42:24;;;;;;;4.55;3.15;;;10.80;99.90;;;;;;5054868;28;20020;-73
2022/10/01 08:44:50;;;;;;;2.90;2.60;;;10.70;99.90;;;;;;5054907;28;20020;-73
2022/10/01 08:47:25;;;;;;;7.57;3.20;;;10.70;99.90;;;;;;5055914;28;20021;-73
2022/10/01 08:49:58;;;;;;;3.92;2.35;;;10.60;99.90;;;;;;5058661;28;20028;-73
2022/10/01 08:52:28;;;;;;;7.32;3.28;;;10.60;99.90;;;;;;5058538;28;20020;-74
2022/10/01 08:55:05;;;;;;;7.93;3.47;;;10.70;99.90;;;;;;5058670;28;20025;-74
2022/10/01 08:57:36;;;;;;;2.90;2.17;;;10.80;99.90;;;;;;5058518;28;20020;-74
2022/10/01 09:00:11;;;;;;;4.03;1.75;;;10.90;99.90;;;;;;5076426;28;20025;-74
2022/10/01 09:02:42;;;;;;;2.33;1.90;;;10.90;99.90;;;;;;5077001;28;20029;-73
2022/10/01 09:05:39;;;;;;;1.98;1.60;;;10.90;99.90;;;;;;5076349;28;20028;-73
2022/10/01 09:08:43;;;;;;;5.75;2.35;;;10.90;99.90;;;;;;5058450;28;20029;-73
2022/10/01 09:11:28;;;;;;;2.47;1.20;;;11.00;99.90;;;;;;5076526;28;20033;-74
2022/10/01 09:14:18;;;;;;;2.42;1.08;;;11.10;99.90;;;;;;5059219;28;20028;-73
2022/10/01 09:17:01;;;;;;;0.90;0.85;;;11.20;99.90;;;;;;5058731;28;20028;-73
2022/10/01 09:19:33;;;;;;;1.85;1.10;;;11.30;99.90;;;;;;5058381;28;20028;-71
2022/10/01 09:22:24;;;;;;;2.40;1.08;;;11.30;99.90;;;;;;5058760;28;20025;-73
2022/10/01 09:25:02;;;;;;;1.23;1.10;;;11.30;99.90;;;;;;5029508;28;20138;-72
2022/10/01 09:27:28;;;;;;;1.25;1.10;;;11.40;99.90;;;;;;5076173;28;20051;-73
2022/10/01 09:30:15;;;;;;;3.22;0.90;;;11.40;99.90;;;;;;5075821;28;20052;-72
2022/10/01 09:33:10;;;;;;;2.38;1.35;;;11.50;99.90;;;;;;5075677;28;20025;-72
2022/10/01 09:35:43;;;;;;;0.73;0.70;;;11.60;99.90;;;;;;5058882;28;20027;-73
2022/10/01 09:38:17;;;;;;;2.92;0.88;;;11.50;99.90;;;;;;5075733;28;20027;-73
2022/10/01 09:40:53;;;;;;;1.35;1.00;;;11.60;99.90;;;;;;5057576;28;20383;-73
2022/10/01 09:43:21;;;;;;;1.98;0.77;;;11.60;99.90;;;;;;5058590;28;20032;-73
2022/10/01 09:45:48;;;;;;;0.90;0.77;;;11.60;99.90;;;;;;5075756;28;20017;-73
2022/10/01 09:51:46;;;;;;;3.08;0.60;;;11.70;99.90;;;;;;5075824;28;20086;-73
2022/10/01 09:54:59;;;;;;;2.05;0.88;;;11.80;99.90;;;;;;5057438;28;20020;-73
2022/10/01 09:57:37;;;;;;;2.95;0.90;;;11.70;99.90;;;;;;5013597;28;20026;-73
2022/10/01 10:00:09;;;;;;;1.13;0.80;;;11.80;99.90;;;;;;4996351;28;20120;-73
2022/10/01 10:02:38;;;;;;;1.02;0.70;;;11.80;99.90;;;;;;5013160;28;20053;-74
2022/10/01 10:05:25;;;;;;;1.88;0.93;;;11.90;99.90;;;;;;4997034;28;20104;-73
2022/10/01 10:08:03;;;;;;;1.42;0.82;;;11.80;99.90;;;;;;5012882;28;20038;-73
2022/10/01 10:10:29;;;;;;;0.82;0.80;;;11.90;99.90;;;;;;5013573;28;20496;-73
2022/10/01 10:13:09;;;;;;;1.73;0.57;;;11.90;99.90;;;;;;4996835;28;20032;-73
2022/10/01 10:15:40;;;;;;;0.77;0.65;;;12.00;99.90;;;;;;5013477;28;20092;-73
2022/10/01 10:18:10;;;;;;;1.20;0.60;;;12.00;99.90;;;;;;4997340;28;20053;-73
2022/10/01 10:20:42;;;;;;;0.60;0.60;;;11.90;99.90;;;;;;4996679;28;20037;-73
2022/10/01 10:23:15;;;;;;;0.75;0.70;;;12.00;99.90;;;;;;5013149;28;20273;-73
2022/10/01 10:25:41;;;;;;;1.08;0.77;;;12.10;99.90;;;;;;5013153;28;20030;-73
2022/10/01 10:28:22;;;;;;;1.35;0.75;;;12.20;99.90;;;;;;5029900;28;20047;-73
2022/10/01 10:30:49;;;;;;;0.50;0.50;;;12.30;99.90;;;;;;5074991;28;20027;-72
2022/10/01 10:33:16;;;;;;;1.30;0.70;;;12.40;99.90;;;;;;5057999;28;20028;-73
2022/10/01 10:35:42;;;;;;;3.13;0.65;;;12.40;99.90;;;;;;5076306;28;20028;-73
2022/10/01 10:38:17;;;;;;;2.90;1.17;;;12.40;99.90;;;;;;5076224;28;20028;-73
2022/10/01 10:40:44;;;;;;;1.52;0.60;;;12.40;99.90;;;;;;5058086;28;20025;-72
2022/10/01 10:43:19;;;;;;;0.98;0.52;;;12.50;99.90;;;;;;5075247;28;20062;-74
2022/10/01 10:45:46;;;;;;;0.70;0.60;;;12.50;99.90;;;;;;5058033;28;20020;-75
2022/10/01 10:48:15;;;;;;;0.88;0.60;;;12.50;99.90;;;;;;5075137;28;20028;-75
2022/10/01 10:50:43;;;;;;;1.67;0.95;;;12.50;99.90;;;;;;5057070;28;20119;-75
2022/10/01 10:53:23;;;;;;;5.15;2.83;;;12.60;99.90;;;;;;5056910;28;20029;-75
2022/10/01 10:56:03;;;;;;;3.75;2.50;;;12.60;99.90;;;;;;5057587;28;20472;-75
2022/10/01 10:58:39;;;;;;;0.77;0.52;;;12.70;99.90;;;;;;5057013;28;20079;-75
2022/10/01 11:01:09;;;;;;;2.08;1.08;;;12.70;99.90;;;;;;5056422;28;20029;-75
2022/10/01 11:03:37;;;;;;;2.05;1.55;;;12.70;99.90;;;;;;5074683;28;20024;-73
2022/10/01 11:06:10;;;;;;;0.68;0.68;;;12.80;99.90;;;;;;5074364;28;20017;-73
2022/10/01 11:08:36;;;;;;;1.58;1.00;;;12.90;99.90;;;;;;5074496;28;20031;-75
2022/10/01 11:11:31;;;;;;;1.23;0.70;;;12.90;99.90;;;;;;5057532;28;20025;-75
2022/10/01 11:14:30;;;;;;;3.08;1.02;;;12.90;99.90;;;;;;5040463;28;20036;-73
2022/10/01 11:17:33;;;;;;;0.70;0.70;;;13.00;99.90;;;;;;5054347;28;20051;-72
2022/10/01 11:20:37;;;;;;;2.60;1.00;;;13.00;99.90;;;;;;5053806;28;20104;-72
2022/10/01 11:23:20;;;;;;;2.72;1.00;;;13.10;99.90;;;;;;5035999;28;20534;-75
2022/10/01 11:26:03;;;;;;;0.93;0.85;;;13.10;99.90;;;;;;5036060;28;20033;-75
2022/10/01 11:28:41;;;;;;;1.35;0.75;;;13.20;99.90;;;;;;5054116;28;20053;-75
2022/10/01 11:31:21;;;;;;;2.22;1.08;;;13.20;99.90;;;;;;5035826;28;20071;-72
2022/10/01 11:34:10;;;;;;;1.10;1.00;;;13.20;99.90;;;;;;5053770;28;20017;-72
2022/10/01 11:36:58;;;;;;;5.28;2.22;;;13.30;99.90;;;;;;5053971;28;20017;-73
2022/10/01 11:39:27;;;;;;;1.52;1.10;;;13.30;99.90;;;;;;5035887;28;20045;-75
2022/10/01 11:41:59;;;;;;;1.95;1.38;;;13.40;99.90;;;;;;5036184;28;20025;-73
2022/10/01 11:44:47;;;;;;;2.00;1.20;;;13.40;99.90;;;;;;5036319;28;20025;-74
2022/10/01 11:47:42;;;;;;;3.17;1.52;;;13.50;99.90;;;;;;5037375;28;20075;-75
2022/10/01 11:50:18;;;;;;;3.42;1.23;;;13.60;99.90;;;;;;5036548;28;20025;-74
2022/10/01 11:52:55;;;;;;;1.95;1.17;;;13.80;99.90;;;;;;5036708;28;20025;-72
2022/10/01 11:58:51;;;;;;;1.48;0.90;;;14.30;99.90;;;;;;5053623;28;20078;-71
2022/10/01 12:01:23;;;;;;;1.33;1.10;;;14.50;99.90;;;;;;5035253;28;20032;-70
2022/10/01 12:03:51;;;;;;;2.53;0.80;;;14.60;99.90;;;;;;5053161;28;20654;-70
2022/10/01 12:06:31;;;;;;;2.25;1.10;;;14.60;99.90;;;;;;5053408;28;20043;-70
2022/10/01 12:09:20;;;;;;;4.53;1.10;;;14.70;99.90;;;;;;5053040;28;20025;-71
2022/10/01 12:12:00;;;;;;;1.10;0.80;;;14.70;99.90;;;;;;5022054;28;20116;-70
2022/10/01 12:14:53;;;;;;;3.78;1.05;;;14.70;99.90;;;;;;5035158;28;20460;-73
2022/10/01 12:17:26;;;;;;;1.15;0.82;;;14.70;99.90;;;;;;5035041;28;20051;-73
2022/10/01 12:19:55;;;;;;;2.10;1.10;;;15.00;99.90;;;;;;5034308;28;20029;-73
2022/10/01 12:22:27;;;;;;;2.15;1.58;;;15.60;99.90;;;;;;5036238;28;20025;-71
2022/10/01 12:24:53;;;;;;;3.28;1.42;;;15.90;99.90;;;;;;5038803;28;20029;-70
2022/10/01 12:27:33;;;;;;;2.78;1.90;;;15.80;99.90;;;;;;5038715;28;20078;-70
2022/10/01 12:30:10;;;;;;;4.05;1.27;;;15.70;99.90;;;;;;5057016;28;20111;-70
2022/10/01 12:32:59;;;;;;;2.15;0.80;;;15.60;99.90;;;;;;5038882;28;20029;-70
2022/10/01 12:35:46;;;;;;;5.57;1.75;;;15.50;99.90;;;;;;5038964;28;20031;-70
2022/10/01 12:38:56;;;;;;;4.47;1.02;;;15.40;99.90;;;;;;5038804;28;20036;-70
2022/10/01 12:41:49;;;;;;;3.58;1.50;;;15.30;99.90;;;;;;5039701;28;20048;-70
2022/10/01 12:44:21;;;;;;;3.42;1.50;;;15.30;99.90;;;;;;5056810;28;20017;-70
2022/10/01 12:46:52;;;;;;;;;;;15.20;99.90;;;;;;5039214;28;20049;-70
2022/10/01 12:49:40;;;;;;;3.03;0.90;;;15.30;99.90;;;;;;5038841;28;19968;-70
2022/10/01 12:52:23;;;;;;;3.08;1.60;;;15.40;99.90;;;;;;5038714;28;20286;-70
2022/10/01 12:55:07;;;;;;;1.63;0.65;;;15.60;99.90;;;;;;5038692;28;20022;-70
2022/10/01 12:57:35;;;;;;;3.50;1.20;;;15.60;99.90;;;;;;5038496;28;20084;-70
2022/10/01 13:00:21;;;;;;;3.58;1.25;;;15.60;99.90;;;;;;5056386;28;20132;-70
2022/10/01 13:02:54;;;;;;;10.27;4.38;;;15.70;99.90;;;;;;5063730;23;20050;-70
2022/10/01 13:05:31;;;;;;;2.03;1.00;;;15.80;99.90;;;;;;5035277;28;20063;-70
2022/10/01 13:08:19;;;;;;;2.65;1.20;;;15.80;99.90;;;;;;5018709;28;20021;-70
2022/10/01 13:11:05;;;;;;;1.23;0.70;;;15.70;99.90;;;;;;5035888;28;20021;-71
2022/10/01 13:13:32;;;;;;;8.52;1.20;;;15.70;99.90;;;;;;5016361;28;20080;-71
2022/10/01 13:16:13;;;;;;;4.40;1.50;;;15.80;99.90;;;;;;5016398;28;20053;-70